sensor_id;sensor_type;location;lat;lon;timestamp;pressure;altitude;pressure_sealevel;temperature;humidity
57668;BME280;43499;52.366;12.912;2023-10-13T00:00:45;101043.75;;;13.17;100.00
57668;BME280;43499;52.366;12.912;2023-10-13T00:01:49;101035.81;;;13.17;100.00
57668;BME280;43499;52.366;12.912;2023-10-13T00:02:53;101030.09;;;13.10;100.00
57668;BME280;43499;52.366;12.912;2023-10-13T00:04:13;101028.47;;;13.12;100.00
57668;BME280;43499;52.366;12.912;2023-10-13T00:05:33;101034.78;;;13.15;100.00
57668;BME280;43499;52.366;12.912;2023-10-13T00:06:54;101032.59;;;13.09;100.00
57668;BME280;43499;52.366;12.912;2023-10-13T00:08:18;101035.38;;;13.10;100.00
57668;BME280;43499;52.366;12.912;2023-10-13T00:09:40;101026.50;;;13.10;100.00
57668;BME280;43499;52.366;12.912;2023-10-13T00:10:59;101025.72;;;13.11;100.00
57668;BME280;43499;52.366;12.912;2023-10-13T00:12:05;101031.78;;;13.10;100.00
57668;BME280;43499;52.366;12.912;2023-10-13T00:13:15;101034.53;;;13.11;100.00
57668;BME280;43499;52.366;12.912;2023-10-13T00:14:17;101031.78;;;13.10;100.00
57668;BME280;43499;52.366;12.912;2023-10-13T00:15:18;101034.44;;;13.10;100.00
57668;BME280;43499;52.366;12.912;2023-10-13T00:16:22;101033.75;;;13.12;100.00
57668;BME280;43499;52.366;12.912;2023-10-13T00:17:27;101029.25;;;13.11;100.00
57668;BME280;43499;52.366;12.912;2023-10-13T00:18:30;101037.75;;;13.19;100.00
57668;BME280;43499;52.366;12.912;2023-10-13T00:19:37;101034.09;;;13.17;100.00
57668;BME280;43499;52.366;12.912;2023-10-13T00:20:41;101039.25;;;13.16;100.00
57668;BME280;43499;52.366;12.912;2023-10-13T00:21:48;101019.41;;;13.09;100.00
57668;BME280;43499;52.366;12.912;2023-10-13T00:22:49;101034.34;;;13.08;100.00
57668;BME280;43499;52.366;12.912;2023-10-13T00:23:50;101044.19;;;13.11;100.00
57668;BME280;43499;52.366;12.912;2023-10-13T00:24:55;101037.19;;;13.11;100.00
57668;BME280;43499;52.366;12.912;2023-10-13T00:25:59;101042.94;;;13.18;100.00
57668;BME280;43499;52.366;12.912;2023-10-13T00:27:03;101033.88;;;13.14;100.00
57668;BME280;43499;52.366;12.912;2023-10-13T00:28:06;101027.47;;;13.10;100.00
57668;BME280;43499;52.366;12.912;2023-10-13T00:29:10;101025.25;;;13.17;100.00
57668;BME280;43499;52.366;12.912;2023-10-13T00:30:17;101018.69;;;13.11;100.00
57668;BME280;43499;52.366;12.912;2023-10-13T00:31:35;101016.06;;;13.11;100.00
57668;BME280;43499;52.366;12.912;2023-10-13T00:32:37;101021.34;;;13.11;100.00
57668;BME280;43499;52.366;12.912;2023-10-13T00:33:41;101017.69;;;13.09;100.00
57668;BME280;43499;52.366;12.912;2023-10-13T00:34:42;101014.91;;;13.08;100.00
57668;BME280;43499;52.366;12.912;2023-10-13T00:35:43;101023.78;;;13.08;100.00
57668;BME280;43499;52.366;12.912;2023-10-13T00:36:46;101018.25;;;13.05;100.00
57668;BME280;43499;52.366;12.912;2023-10-13T00:38:07;101020.34;;;13.09;100.00
57668;BME280;43499;52.366;12.912;2023-10-13T00:39:14;101021.25;;;13.10;100.00
57668;BME280;43499;52.366;12.912;2023-10-13T00:40:16;101029.16;;;13.10;100.00
57668;BME280;43499;52.366;12.912;2023-10-13T00:41:38;101014.72;;;13.05;100.00
57668;BME280;43499;52.366;12.912;2023-10-13T00:42:53;101020.09;;;13.06;100.00
57668;BME280;43499;52.366;12.912;2023-10-13T00:43:54;101023.78;;;13.08;100.00
57668;BME280;43499;52.366;12.912;2023-10-13T00:45:05;101017.81;;;13.11;100.00
57668;BME280;43499;52.366;12.912;2023-10-13T00:46:06;101021.34;;;13.11;100.00
57668;BME280;43499;52.366;12.912;2023-10-13T00:47:09;101010.69;;;13.10;100.00
57668;BME280;43499;52.366;12.912;2023-10-13T00:48:11;101030.78;;;13.20;100.00
57668;BME280;43499;52.366;12.912;2023-10-13T00:49:13;101025.16;;;13.15;100.00
57668;BME280;43499;52.366;12.912;2023-10-13T00:50:17;101029.75;;;13.18;100.00
57668;BME280;43499;52.366;12.912;2023-10-13T00:51:19;101013.56;;;13.13;100.00
57668;BME280;43499;52.366;12.912;2023-10-13T00:52:39;101017.91;;;13.12;100.00
57668;BME280;43499;52.366;12.912;2023-10-13T00:53:42;101010.78;;;13.11;100.00
57668;BME280;43499;52.366;12.912;2023-10-13T00:54:45;101017.00;;;13.12;100.00
57668;BME280;43499;52.366;12.912;2023-10-13T00:55:49;101023.78;;;13.20;100.00
57668;BME280;43499;52.366;12.912;2023-10-13T00:56:50;101016.00;;;13.22;100.00
57668;BME280;43499;52.366;12.912;2023-10-13T00:58:06;101020.22;;;13.20;100.00
57668;BME280;43499;52.366;12.912;2023-10-13T00:59:09;101011.16;;;13.16;100.00
57668;BME280;43499;52.366;12.912;2023-10-13T01:00:11;101017.34;;;13.17;100.00
57668;BME280;43499;52.366;12.912;2023-10-13T01:01:25;101028.25;;;13.21;100.00
57668;BME280;43499;52.366;12.912;2023-10-13T01:02:30;101021.94;;;13.19;100.00
57668;BME280;43499;52.366;12.912;2023-10-13T01:03:41;101020.09;;;13.18;100.00
57668;BME280;43499;52.366;12.912;2023-10-13T01:04:42;101024.22;;;13.15;100.00
57668;BME280;43499;52.366;12.912;2023-10-13T01:05:43;101012.53;;;13.11;100.00
57668;BME280;43499;52.366;12.912;2023-10-13T01:06:44;101013.66;;;13.15;100.00
57668;BME280;43499;52.366;12.912;2023-10-13T01:07:47;101011.81;;;13.14;100.00
57668;BME280;43499;52.366;12.912;2023-10-13T01:10:17;101022.88;;;13.20;100.00
57668;BME280;43499;52.366;12.912;2023-10-13T01:11:19;101007.69;;;13.17;100.00
57668;BME280;43499;52.366;12.912;2023-10-13T01:12:20;101010.13;;;13.14;100.00
57668;BME280;43499;52.366;12.912;2023-10-13T01:13:24;101009.19;;;13.14;100.00
57668;BME280;43499;52.366;12.912;2023-10-13T01:14:26;101012.88;;;13.16;100.00
57668;BME280;43499;52.366;12.912;2023-10-13T01:15:30;101016.44;;;13.16;100.00
57668;BME280;43499;52.366;12.912;2023-10-13T01:16:33;101009.44;;;13.17;100.00
57668;BME280;43499;52.366;12.912;2023-10-13T01:17:36;101009.44;;;13.17;100.00
57668;BME280;43499;52.366;12.912;2023-10-13T01:18:38;101021.72;;;13.16;100.00
57668;BME280;43499;52.366;12.912;2023-10-13T01:19:48;101003.69;;;13.10;100.00
57668;BME280;43499;52.366;12.912;2023-10-13T01:20:49;101002.78;;;13.10;100.00
57668;BME280;43499;52.366;12.912;2023-10-13T01:21:53;101000.22;;;13.11;100.00
57668;BME280;43499;52.366;12.912;2023-10-13T01:23:10;101002.22;;;13.14;100.00
57668;BME280;43499;52.366;12.912;2023-10-13T01:24:19;100997.81;;;13.15;100.00
57668;BME280;43499;52.366;12.912;2023-10-13T01:25:25;101004.16;;;13.17;100.00
57668;BME280;43499;52.366;12.912;2023-10-13T01:26:28;101007.47;;;13.14;100.00
57668;BME280;43499;52.366;12.912;2023-10-13T01:27:29;101002.53;;;13.07;100.00
57668;BME280;43499;52.366;12.912;2023-10-13T01:28:31;101010.69;;;13.10;100.00
57668;BME280;43499;52.366;12.912;2023-10-13T01:29:49;101008.03;;;13.10;100.00
57668;BME280;43499;52.366;12.912;2023-10-13T01:30:53;101001.28;;;13.14;100.00
57668;BME280;43499;52.366;12.912;2023-10-13T01:31:54;100991.66;;;13.14;100.00
57668;BME280;43499;52.366;12.912;2023-10-13T01:32:55;100993.00;;;13.09;100.00
57668;BME280;43499;52.366;12.912;2023-10-13T01:34:01;100991.06;;;13.06;100.00
57668;BME280;43499;52.366;12.912;2023-10-13T01:35:03;100994.59;;;13.07;100.00
57668;BME280;43499;52.366;12.912;2023-10-13T01:36:06;101006.91;;;13.06;100.00
57668;BME280;43499;52.366;12.912;2023-10-13T01:37:09;101012.28;;;13.08;100.00
57668;BME280;43499;52.366;12.912;2023-10-13T01:38:11;101012.41;;;13.09;100.00
57668;BME280;43499;52.366;12.912;2023-10-13T01:39:12;101013.66;;;13.15;100.00
57668;BME280;43499;52.366;12.912;2023-10-13T01:40:17;101013.31;;;13.10;100.00
57668;BME280;43499;52.366;12.912;2023-10-13T01:41:21;101019.19;;;13.18;100.00
57668;BME280;43499;52.366;12.912;2023-10-13T01:42:23;101009.19;;;13.14;100.00
57668;BME280;43499;52.366;12.912;2023-10-13T01:43:25;101013.56;;;13.13;100.00
57668;BME280;43499;52.366;12.912;2023-10-13T01:44:27;101005.31;;;13.08;100.00
57668;BME280;43499;52.366;12.912;2023-10-13T01:45:34;101009.88;;;13.11;100.00
57668;BME280;43499;52.366;12.912;2023-10-13T01:46:35;101006.44;;;13.12;100.00
57668;BME280;43499;52.366;12.912;2023-10-13T01:47:38;100996.25;;;13.05;100.00
57668;BME280;43499;52.366;12.912;2023-10-13T01:48:41;101007.47;;;13.02;100.00
57668;BME280;43499;52.366;12.912;2023-10-13T01:49:44;101007.69;;;13.05;100.00
57668;BME280;43499;52.366;12.912;2023-10-13T01:50:49;100999.69;;;13.04;100.00
57668;BME280;43499;52.366;12.912;2023-10-13T01:51:56;101000.03;;;13.08;100.00
57668;BME280;43499;52.366;12.912;2023-10-13T01:52:57;100997.38;;;13.08;100.00
57668;BME280;43499;52.366;12.912;2023-10-13T01:54:13;100994.84;;;13.10;100.00
57668;BME280;43499;52.366;12.912;2023-10-13T01:55:16;100996.59;;;13.09;100.00
57668;BME280;43499;52.366;12.912;2023-10-13T01:56:18;101004.59;;;13.11;100.00
57668;BME280;43499;52.366;12.912;2023-10-13T01:57:24;100996.59;;;13.09;100.00
57668;BME280;43499;52.366;12.912;2023-10-13T01:58:25;100998.19;;;13.07;100.00
57668;BME280;43499;52.366;12.912;2023-10-13T01:59:30;100994.97;;;13.00;100.00
57668;BME280;43499;52.366;12.912;2023-10-13T02:00:32;100997.16;;;13.05;100.00
57668;BME280;43499;52.366;12.912;2023-10-13T02:01:34;100990.25;;;13.07;100.00
57668;BME280;43499;52.366;12.912;2023-10-13T02:02:36;100995.66;;;13.09;100.00
57668;BME280;43499;52.366;12.912;2023-10-13T02:03:39;100994.59;;;13.07;100.00
57668;BME280;43499;52.366;12.912;2023-10-13T02:04:48;100980.50;;;13.06;100.00
57668;BME280;43499;52.366;12.912;2023-10-13T02:05:58;100996.00;;;13.14;100.00
57668;BME280;43499;52.366;12.912;2023-10-13T02:07:05;100977.78;;;13.05;100.00
57668;BME280;43499;52.366;12.912;2023-10-13T02:08:09;100988.31;;;13.05;100.00
57668;BME280;43499;52.366;12.912;2023-10-13T02:09:18;100983.03;;;13.05;100.00
57668;BME280;43499;52.366;12.912;2023-10-13T02:10:30;100989.47;;;13.08;100.00
57668;BME280;43499;52.366;12.912;2023-10-13T02:11:32;100987.16;;;13.13;100.00
57668;BME280;43499;52.366;12.912;2023-10-13T02:12:33;100977.97;;;13.08;100.00
57668;BME280;43499;52.366;12.912;2023-10-13T02:13:38;100978.44;;;13.14;100.00
57668;BME280;43499;52.366;12.912;2023-10-13T02:14:49;100968.94;;;13.16;100.00
57668;BME280;43499;52.366;12.912;2023-10-13T02:15:55;100971.91;;;13.21;100.00
57668;BME280;43499;52.366;12.912;2023-10-13T02:16:57;100980.41;;;13.17;100.00
57668;BME280;43499;52.366;12.912;2023-10-13T02:18:15;100971.56;;;13.16;100.00
57668;BME280;43499;52.366;12.912;2023-10-13T02:19:38;100973.03;;;13.12;100.00
57668;BME280;43499;52.366;12.912;2023-10-13T02:20:41;100968.69;;;13.13;100.00
57668;BME280;43499;52.366;12.912;2023-10-13T02:21:45;100972.47;;;13.17;100.00
57668;BME280;43499;52.366;12.912;2023-10-13T02:22:46;100963.66;;;13.16;100.00
57668;BME280;43499;52.366;12.912;2023-10-13T02:23:50;100970.97;;;13.20;100.00
57668;BME280;43499;52.366;12.912;2023-10-13T02:25:11;100969.47;;;13.24;100.00
57668;BME280;43499;52.366;12.912;2023-10-13T02:26:20;100961.34;;;13.21;100.00
57668;BME280;43499;52.366;12.912;2023-10-13T02:27:34;100952.84;;;13.25;100.00
57668;BME280;43499;52.366;12.912;2023-10-13T02:28:42;100969.00;;;13.30;100.00
57668;BME280;43499;52.366;12.912;2023-10-13T02:29:52;100956.50;;;13.27;100.00
57668;BME280;43499;52.366;12.912;2023-10-13T02:31:02;100962.13;;;13.32;100.00
57668;BME280;43499;52.366;12.912;2023-10-13T02:32:04;100957.09;;;13.35;100.00
57668;BME280;43499;52.366;12.912;2023-10-13T02:33:05;100956.28;;;13.36;100.00
57668;BME280;43499;52.366;12.912;2023-10-13T02:34:07;100952.69;;;13.35;100.00
57668;BME280;43499;52.366;12.912;2023-10-13T02:35:09;100948.38;;;13.36;100.00
57668;BME280;43499;52.366;12.912;2023-10-13T02:36:16;100948.38;;;13.36;100.00
57668;BME280;43499;52.366;12.912;2023-10-13T02:37:24;100947.31;;;13.34;100.00
57668;BME280;43499;52.366;12.912;2023-10-13T02:38:25;100950.91;;;13.34;100.00
57668;BME280;43499;52.366;12.912;2023-10-13T02:39:43;100948.47;;;13.37;100.00
57668;BME280;43499;52.366;12.912;2023-10-13T02:40:44;100953.75;;;13.37;100.00
57668;BME280;43499;52.366;12.912;2023-10-13T02:41:45;100958.72;;;13.45;100.00
57668;BME280;43499;52.366;12.912;2023-10-13T02:42:49;100952.50;;;13.44;100.00
57668;BME280;43499;52.366;12.912;2023-10-13T02:43:51;100947.13;;;13.42;100.00
57668;BME280;43499;52.366;12.912;2023-10-13T02:44:52;100948.03;;;13.43;100.00
57668;BME280;43499;52.366;12.912;2023-10-13T02:45:59;100951.00;;;13.48;100.00
57668;BME280;43499;52.366;12.912;2023-10-13T02:47:00;100944.13;;;13.50;100.00
57668;BME280;43499;52.366;12.912;2023-10-13T02:48:02;100941.38;;;13.48;100.00
57668;BME280;43499;52.366;12.912;2023-10-13T02:49:24;100934.16;;;13.46;100.00
57668;BME280;43499;52.366;12.912;2023-10-13T02:50:27;100937.69;;;13.46;100.00
57668;BME280;43499;52.366;12.912;2023-10-13T02:51:34;100931.72;;;13.49;100.00
57668;BME280;43499;52.366;12.912;2023-10-13T02:52:38;100931.38;;;13.44;100.00
57668;BME280;43499;52.366;12.912;2023-10-13T02:53:46;100925.88;;;13.41;100.00
57668;BME280;43499;52.366;12.912;2023-10-13T02:54:50;100932.09;;;13.41;100.00
57668;BME280;43499;52.366;12.912;2023-10-13T02:55:53;100934.03;;;13.44;100.00
57668;BME280;43499;52.366;12.912;2023-10-13T02:56:54;100932.31;;;13.45;100.00
57668;BME280;43499;52.366;12.912;2023-10-13T02:57:58;100929.69;;;13.45;100.00
57668;BME280;43499;52.366;12.912;2023-10-13T02:59:00;100933.56;;;13.50;100.00
57668;BME280;43499;52.366;12.912;2023-10-13T03:00:05;100937.22;;;13.52;100.00
57668;BME280;43499;52.366;12.912;2023-10-13T03:01:13;100933.56;;;13.50;100.00
57668;BME280;43499;52.366;12.912;2023-10-13T03:02:21;100920.22;;;13.36;100.00
57668;BME280;43499;52.366;12.912;2023-10-13T03:03:26;100926.19;;;13.34;100.00
57668;BME280;43499;52.366;12.912;2023-10-13T03:04:30;100931.06;;;13.39;100.00
57668;BME280;43499;52.366;12.912;2023-10-13T03:05:34;100928.28;;;13.38;100.00
57668;BME280;43499;52.366;12.912;2023-10-13T03:06:36;100930.69;;;13.35;100.00
57668;BME280;43499;52.366;12.912;2023-10-13T03:07:40;100931.59;;;13.35;100.00
57668;BME280;43499;52.366;12.912;2023-10-13T03:08:45;100925.31;;;13.33;100.00
57668;BME280;43499;52.366;12.912;2023-10-13T03:09:47;100922.75;;;13.35;100.00
57668;BME280;43499;52.366;12.912;2023-10-13T03:10:56;100921.63;;;13.31;100.00
57668;BME280;43499;52.366;12.912;2023-10-13T03:11:57;100922.34;;;13.29;100.00
57668;BME280;43499;52.366;12.912;2023-10-13T03:12:58;100923.94;;;13.26;100.00
57668;BME280;43499;52.366;12.912;2023-10-13T03:14:00;100926.34;;;13.23;100.00
57668;BME280;43499;52.366;12.912;2023-10-13T03:15:07;100914.41;;;13.29;100.00
57668;BME280;43499;52.366;12.912;2023-10-13T03:16:18;100919.00;;;13.31;100.00
57668;BME280;43499;52.366;12.912;2023-10-13T03:17:22;100914.94;;;13.36;100.00
57668;BME280;43499;52.366;12.912;2023-10-13T03:18:34;100912.19;;;13.35;100.00
57668;BME280;43499;52.366;12.912;2023-10-13T03:19:37;100905.41;;;13.38;100.00
57668;BME280;43499;52.366;12.912;2023-10-13T03:20:39;100909.22;;;13.42;100.00
57668;BME280;43499;52.366;12.912;2023-10-13T03:21:42;100916.25;;;13.41;100.00
57668;BME280;43499;52.366;12.912;2023-10-13T03:22:45;100910.59;;;13.37;100.00
57668;BME280;43499;52.366;12.912;2023-10-13T03:23:47;100901.53;;;13.33;100.00
57668;BME280;43499;52.366;12.912;2023-10-13T03:24:48;100902.69;;;13.37;100.00
57668;BME280;43499;52.366;12.912;2023-10-13T03:25:49;100898.44;;;13.39;100.00
57668;BME280;43499;52.366;12.912;2023-10-13T03:26:52;100894.09;;;13.39;100.00
57668;BME280;43499;52.366;12.912;2023-10-13T03:27:54;100902.78;;;13.38;100.00
57668;BME280;43499;52.366;12.912;2023-10-13T03:28:56;100884.66;;;13.31;100.00
57668;BME280;43499;52.366;12.912;2023-10-13T03:29:58;100895.56;;;13.36;100.00
57668;BME280;43499;52.366;12.912;2023-10-13T03:31:01;100884.28;;;13.38;100.00
57668;BME280;43499;52.366;12.912;2023-10-13T03:32:04;100876.38;;;13.38;100.00
57668;BME280;43499;52.366;12.912;2023-10-13T03:33:12;100884.06;;;13.35;100.00
57668;BME280;43499;52.366;12.912;2023-10-13T03:34:14;100868.13;;;13.34;100.00
57668;BME280;43499;52.366;12.912;2023-10-13T03:35:17;100871.69;;;13.34;100.00
57668;BME280;43499;52.366;12.912;2023-10-13T03:36:38;100879.72;;;13.36;100.00
57668;BME280;43499;52.366;12.912;2023-10-13T03:37:58;100872.50;;;13.33;100.00
57668;BME280;43499;52.366;12.912;2023-10-13T03:38:59;100870.06;;;13.36;100.00
57668;BME280;43499;52.366;12.912;2023-10-13T03:40:00;100878.91;;;13.37;100.00
57668;BME280;43499;52.366;12.912;2023-10-13T03:41:01;100874.22;;;13.33;100.00
57668;BME280;43499;52.366;12.912;2023-10-13T03:42:13;100865.25;;;13.31;100.00
57668;BME280;43499;52.366;12.912;2023-10-13T03:43:19;100879.16;;;13.28;100.00
57668;BME280;43499;52.366;12.912;2023-10-13T03:44:22;100884.53;;;13.30;100.00
57668;BME280;43499;52.366;12.912;2023-10-13T03:45:24;100878.44;;;13.31;100.00
57668;BME280;43499;52.366;12.912;2023-10-13T03:46:25;100888.34;;;13.33;100.00
57668;BME280;43499;52.366;12.912;2023-10-13T03:47:27;100895.66;;;13.37;100.00
57668;BME280;43499;52.366;12.912;2023-10-13T03:48:33;100876.28;;;13.37;100.00
57668;BME280;43499;52.366;12.912;2023-10-13T03:49:41;100877.16;;;13.37;100.00
57668;BME280;43499;52.366;12.912;2023-10-13T03:50:42;100877.97;;;13.36;100.00
57668;BME280;43499;52.366;12.912;2023-10-13T03:52:03;100877.97;;;13.36;100.00
57668;BME280;43499;52.366;12.912;2023-10-13T03:53:06;100866.75;;;13.39;100.00
57668;BME280;43499;52.366;12.912;2023-10-13T03:54:14;100869.75;;;13.44;100.00
57668;BME280;43499;52.366;12.912;2023-10-13T03:55:17;100866.16;;;13.43;100.00
57668;BME280;43499;52.366;12.912;2023-10-13T03:56:20;100863.66;;;13.45;100.00
57668;BME280;43499;52.366;12.912;2023-10-13T03:57:27;100862.38;;;13.51;100.00
57668;BME280;43499;52.366;12.912;2023-10-13T03:58:28;100860.53;;;13.50;100.00
57668;BME280;43499;52.366;12.912;2023-10-13T03:59:30;100859.19;;;13.44;100.00
57668;BME280;43499;52.366;12.912;2023-10-13T04:00:36;100856.53;;;13.44;100.00
57668;BME280;43499;52.366;12.912;2023-10-13T04:01:37;100856.53;;;13.44;100.00
57668;BME280;43499;52.366;12.912;2023-10-13T04:02:44;100855.94;;;13.48;100.00
57668;BME280;43499;52.366;12.912;2023-10-13T04:03:53;100856.75;;;13.47;100.00
57668;BME280;43499;52.366;12.912;2023-10-13T04:04:58;100848.81;;;13.47;100.00
57668;BME280;43499;52.366;12.912;2023-10-13T04:06:08;100855.03;;;13.47;100.00
57668;BME280;43499;52.366;12.912;2023-10-13T04:07:17;100850.78;;;13.49;100.00
57668;BME280;43499;52.366;12.912;2023-10-13T04:08:38;100856.38;;;13.54;100.00
57668;BME280;43499;52.366;12.912;2023-10-13T04:10:11;100842.16;;;13.52;100.00
57668;BME280;43499;52.366;12.912;2023-10-13T04:11:30;100851.22;;;13.55;100.00
57668;BME280;43499;52.366;12.912;2023-10-13T04:12:51;100855.34;;;13.52;100.00
57668;BME280;43499;52.366;12.912;2023-10-13T04:14:11;100841.25;;;13.51;100.00
57668;BME280;43499;52.366;12.912;2023-10-13T04:15:44;100858.41;;;13.58;100.00
57668;BME280;43499;52.366;12.912;2023-10-13T04:17:24;100837.19;;;13.56;100.00
57668;BME280;43499;52.366;12.912;2023-10-13T04:18:28;100839.03;;;13.57;100.00
57668;BME280;43499;52.366;12.912;2023-10-13T04:19:48;100835.69;;;13.60;100.00
57668;BME280;43499;52.366;12.912;2023-10-13T04:21:08;100845.56;;;13.63;100.00
57668;BME280;43499;52.366;12.912;2023-10-13T04:22:20;100833.03;;;13.60;100.00
57668;BME280;43499;52.366;12.912;2023-10-13T04:23:21;100833.03;;;13.60;100.00
57668;BME280;43499;52.366;12.912;2023-10-13T04:24:28;100839.56;;;13.65;100.00
57668;BME280;43499;52.366;12.912;2023-10-13T04:25:51;100838.06;;;13.69;100.00
57668;BME280;43499;52.366;12.912;2023-10-13T04:27:05;100832.69;;;13.67;100.00
57668;BME280;43499;52.366;12.912;2023-10-13T04:28:13;100831.16;;;13.71;100.00
57668;BME280;43499;52.366;12.912;2023-10-13T04:29:14;100809.41;;;13.62;100.00
57668;BME280;43499;52.366;12.912;2023-10-13T04:30:28;100833.19;;;13.75;100.00
57668;BME280;43499;52.366;12.912;2023-10-13T04:31:44;100821.63;;;13.73;100.00
57668;BME280;43499;52.366;12.912;2023-10-13T04:33:01;100826.91;;;13.73;100.00
57668;BME280;43499;52.366;12.912;2023-10-13T04:34:28;100828.13;;;13.78;100.00
57668;BME280;43499;52.366;12.912;2023-10-13T04:35:38;100822.97;;;13.80;100.00
57668;BME280;43499;52.366;12.912;2023-10-13T04:36:48;100815.94;;;13.80;100.00
57668;BME280;43499;52.366;12.912;2023-10-13T04:37:56;100819.31;;;13.78;100.00
57668;BME280;43499;52.366;12.912;2023-10-13T04:39:02;100811.47;;;13.79;100.00
57668;BME280;43499;52.366;12.912;2023-10-13T04:40:04;100810.56;;;13.79;100.00
57668;BME280;43499;52.366;12.912;2023-10-13T04:41:11;100809.88;;;13.81;100.00
57668;BME280;43499;52.366;12.912;2023-10-13T04:42:23;100811.56;;;13.81;100.00
57668;BME280;43499;52.366;12.912;2023-10-13T04:43:42;100798.50;;;13.82;100.00
57668;BME280;43499;52.366;12.912;2023-10-13T04:44:56;100790.44;;;13.81;100.00
57668;BME280;43499;52.366;12.912;2023-10-13T04:46:01;100801.34;;;13.85;100.00
57668;BME280;43499;52.366;12.912;2023-10-13T04:47:21;100811.09;;;13.86;100.00
57668;BME280;43499;52.366;12.912;2023-10-13T04:48:22;100812.81;;;13.86;100.00
57668;BME280;43499;52.366;12.912;2023-10-13T04:49:23;100813.72;;;13.86;100.00
57668;BME280;43499;52.366;12.912;2023-10-13T04:50:29;100808.34;;;13.85;100.00
57668;BME280;43499;52.366;12.912;2023-10-13T04:51:37;100803.78;;;13.82;100.00
57668;BME280;43499;52.366;12.912;2023-10-13T04:52:56;100804.47;;;13.80;100.00
57668;BME280;43499;52.366;12.912;2023-10-13T04:54:04;100809.88;;;13.81;100.00
57668;BME280;43499;52.366;12.912;2023-10-13T04:55:12;100807.00;;;13.78;100.00
57668;BME280;43499;52.366;12.912;2023-10-13T04:56:39;100806.28;;;13.81;100.00
57668;BME280;43499;52.366;12.912;2023-10-13T04:57:43;100799.38;;;13.83;100.00
57668;BME280;43499;52.366;12.912;2023-10-13T04:59:22;100811.91;;;13.85;100.00
57668;BME280;43499;52.366;12.912;2023-10-13T05:00:44;100802.03;;;13.83;100.00
57668;BME280;43499;52.366;12.912;2023-10-13T05:02:17;100802.25;;;13.86;100.00
57668;BME280;43499;52.366;12.912;2023-10-13T05:03:36;100805.13;;;13.89;100.00
57668;BME280;43499;52.366;12.912;2023-10-13T05:04:56;100802.56;;;13.91;100.00
57668;BME280;43499;52.366;12.912;2023-10-13T05:06:15;100799.84;;;13.89;100.00
57668;BME280;43499;52.366;12.912;2023-10-13T05:07:35;100802.78;;;13.94;100.00
57668;BME280;43499;52.366;12.912;2023-10-13T05:08:54;100798.41;;;13.94;100.00
57668;BME280;43499;52.366;12.912;2023-10-13T05:10:34;100799.44;;;13.96;100.00
57668;BME280;43499;52.366;12.912;2023-10-13T05:12:06;100795.25;;;14.00;100.00
57668;BME280;43499;52.366;12.912;2023-10-13T05:13:45;100797.91;;;14.00;100.00
57668;BME280;43499;52.366;12.912;2023-10-13T05:15:05;100788.03;;;13.97;100.00
57668;BME280;43499;52.366;12.912;2023-10-13T05:16:25;100786.72;;;13.91;100.00
57668;BME280;43499;52.366;12.912;2023-10-13T05:17:45;100794.06;;;13.95;100.00
57668;BME280;43499;52.366;12.912;2023-10-13T05:19:04;100787.16;;;14.10;100.00
57668;BME280;43499;52.366;12.912;2023-10-13T05:20:26;100802.09;;;14.10;100.00
57668;BME280;43499;52.366;12.912;2023-10-13T05:21:45;100798.75;;;14.12;100.00
57668;BME280;43499;52.366;12.912;2023-10-13T05:23:05;100806.81;;;14.14;100.00
57668;BME280;43499;52.366;12.912;2023-10-13T05:24:25;100803.81;;;14.09;100.00
57668;BME280;43499;52.366;12.912;2023-10-13T05:25:44;100798.78;;;14.26;100.00
57668;BME280;43499;52.366;12.912;2023-10-13T05:27:04;100804.16;;;14.14;100.00
57668;BME280;43499;52.366;12.912;2023-10-13T05:28:43;100810.44;;;14.02;100.00
57668;BME280;43499;52.366;12.912;2023-10-13T05:30:20;100807.34;;;13.96;100.00
57668;BME280;43499;52.366;12.912;2023-10-13T05:31:59;100811.22;;;13.88;100.00
57668;BME280;43499;52.366;12.912;2023-10-13T05:33:19;100796.16;;;13.87;100.00
57668;BME280;43499;52.366;12.912;2023-10-13T05:34:58;100799.38;;;13.83;100.00
57668;BME280;43499;52.366;12.912;2023-10-13T05:36:36;100799.28;;;13.81;100.00
57668;BME280;43499;52.366;12.912;2023-10-13T05:38:15;100788.72;;;13.81;100.00
57668;BME280;43499;52.366;12.912;2023-10-13T05:39:53;100794.00;;;13.81;100.00
57668;BME280;43499;52.366;12.912;2023-10-13T05:41:13;100797.56;;;13.82;100.00
57668;BME280;43499;52.366;12.912;2023-10-13T05:42:33;100795.72;;;13.81;100.00
57668;BME280;43499;52.366;12.912;2023-10-13T05:43:52;100792.28;;;13.82;100.00
57668;BME280;43499;52.366;12.912;2023-10-13T05:45:12;100787.78;;;13.81;100.00
57668;BME280;43499;52.366;12.912;2023-10-13T05:46:19;100793.19;;;13.82;100.00
57668;BME280;43499;52.366;12.912;2023-10-13T05:47:26;100789.44;;;13.79;100.00
57668;BME280;43499;52.366;12.912;2023-10-13T05:48:42;100792.50;;;13.85;100.00
57668;BME280;43499;52.366;12.912;2023-10-13T05:49:59;100789.75;;;13.83;100.00
57668;BME280;43499;52.366;12.912;2023-10-13T05:51:13;100781.03;;;13.84;100.00
57668;BME280;43499;52.366;12.912;2023-10-13T05:52:33;100786.63;;;13.89;100.00
57668;BME280;43499;52.366;12.912;2023-10-13T05:53:53;100791.09;;;13.90;100.00